createdAt,value
2023-06-11T00:01:15.453Z,18.90
2023-06-11T00:06:18.905Z,18.65
2023-06-11T00:11:21.978Z,18.56
2023-06-11T00:16:23.575Z,18.62
2023-06-11T00:21:25.987Z,18.46
2023-06-11T00:26:29.078Z,18.43
2023-06-11T00:31:30.801Z,18.40
2023-06-11T00:36:34.468Z,18.38
2023-06-11T00:41:37.254Z,18.22
2023-06-11T00:46:39.208Z,18.12
2023-06-11T00:51:43.102Z,17.89
2023-06-11T00:56:45.057Z,17.77
2023-06-11T01:01:52.991Z,17.58
2023-06-11T01:06:58.301Z,17.55
2023-06-11T01:12:00.261Z,17.45
2023-06-11T01:17:08.104Z,17.41
2023-06-11T01:23:12.682Z,17.27
2023-06-11T01:28:18.627Z,17.25
2023-06-11T01:33:25.929Z,17.17
2023-06-11T01:38:31.923Z,17.22
2023-06-11T01:43:34.112Z,17.14
2023-06-11T01:48:37.654Z,17.02
2023-06-11T01:53:39.393Z,16.86
2023-06-11T01:58:43.599Z,16.85
2023-06-11T02:03:45.345Z,16.78
2023-06-11T02:08:47.092Z,16.77
2023-06-11T02:13:48.774Z,16.73
2023-06-11T02:18:50.335Z,16.66
2023-06-11T02:23:53.174Z,16.58
2023-06-11T02:28:54.747Z,16.41
2023-06-11T02:33:56.370Z,16.42
2023-06-11T02:38:57.968Z,16.29
2023-06-11T02:43:59.695Z,16.35
2023-06-11T02:49:01.775Z,16.31
2023-06-11T02:54:04.027Z,16.32
2023-06-11T02:59:06.587Z,16.35
2023-06-11T03:04:08.485Z,16.32
2023-06-11T03:09:10.061Z,16.28
2023-06-11T03:14:11.574Z,16.16
2023-06-11T03:19:13.239Z,16.19
2023-06-11T03:24:14.820Z,16.09
2023-06-11T03:29:16.533Z,16.19
2023-06-11T03:34:18.129Z,16.06
2023-06-11T03:39:19.718Z,16.11
2023-06-11T03:44:21.350Z,15.88
2023-06-11T03:49:22.923Z,15.99
2023-06-11T03:54:25.035Z,16.09
2023-06-11T03:59:26.558Z,15.89
2023-06-11T04:04:28.180Z,15.97
2023-06-11T04:09:29.900Z,16.01
2023-06-11T04:14:31.469Z,16.08
2023-06-11T04:19:33.009Z,16.11
2023-06-11T04:24:34.652Z,16.06
2023-06-11T04:29:36.265Z,16.50
2023-06-11T04:34:38.904Z,16.67
2023-06-11T04:39:40.473Z,16.90
2023-06-11T04:44:42.082Z,17.31
2023-06-11T04:49:44.911Z,17.69
2023-06-11T04:54:46.557Z,18.52
2023-06-11T04:59:50.686Z,18.94
2023-06-11T05:04:54.769Z,19.09
2023-06-11T05:10:00.152Z,19.31
2023-06-11T05:15:01.802Z,19.60
2023-06-11T05:20:04.240Z,19.90
2023-06-11T05:25:06.048Z,20.16
2023-06-11T05:30:09.052Z,20.28
2023-06-11T05:35:10.901Z,20.54
2023-06-11T05:40:12.913Z,21.14
2023-06-11T05:45:14.660Z,21.17
2023-06-11T05:50:16.353Z,21.40
2023-06-11T05:55:18.198Z,21.40
2023-06-11T06:00:19.840Z,21.46
2023-06-11T06:05:21.643Z,21.96
2023-06-11T06:10:23.538Z,22.00
2023-06-11T06:15:25.128Z,22.25
2023-06-11T06:20:26.783Z,22.46
2023-06-11T06:25:28.651Z,22.70
2023-06-11T06:30:30.270Z,22.87
2023-06-11T06:35:34.805Z,22.84
2023-06-11T06:40:36.390Z,23.59
2023-06-11T06:45:39.503Z,23.27
2023-06-11T06:50:41.074Z,23.64
2023-06-11T06:55:42.682Z,23.45
2023-06-11T07:00:47.741Z,23.77
2023-06-11T07:05:51.602Z,23.71
2023-06-11T07:10:55.459Z,24.06
2023-06-11T07:15:57.074Z,24.67
2023-06-11T07:20:58.875Z,24.52
2023-06-11T07:26:01.529Z,24.52
2023-06-11T07:31:03.303Z,25.06
2023-06-11T07:36:05.129Z,25.44
2023-06-11T07:41:06.983Z,25.65
2023-06-11T07:46:08.684Z,25.55
2023-06-11T07:51:10.429Z,25.78
2023-06-11T07:56:12.267Z,26.10
2023-06-11T08:01:14.032Z,25.83
2023-06-11T08:06:15.567Z,25.89
2023-06-11T08:11:17.323Z,26.46
2023-06-11T08:16:19.468Z,26.55
2023-06-11T08:21:21.518Z,26.91
2023-06-11T08:26:23.246Z,26.65
2023-06-11T08:31:26.368Z,27.09
2023-06-11T08:36:28.256Z,27.54
2023-06-11T08:41:32.917Z,27.59
2023-06-11T08:46:40.200Z,28.16
2023-06-11T08:51:42.399Z,28.40
2023-06-11T08:56:44.697Z,28.29
2023-06-11T09:01:52.079Z,28.36
2023-06-11T09:07:02.070Z,28.82
2023-06-11T09:12:10.123Z,29.24
2023-06-11T09:17:17.098Z,29.08
2023-06-11T09:22:27.176Z,29.72
2023-06-11T09:27:28.874Z,30.17
2023-06-11T09:32:34.487Z,29.63
2023-06-11T09:37:51.588Z,30.18
2023-06-11T09:42:53.199Z,30.47
2023-06-11T09:47:54.809Z,30.68
2023-06-11T09:52:58.330Z,30.07
2023-06-11T09:58:00.278Z,31.04
2023-06-11T10:03:02.299Z,31.21
2023-06-11T10:08:17.275Z,30.88
2023-06-11T10:13:29.449Z,31.32
2023-06-11T10:18:31.832Z,31.02
2023-06-11T10:23:37.845Z,30.65
2023-06-11T10:28:52.452Z,30.90
2023-06-11T10:34:01.871Z,31.61
2023-06-11T10:39:27.878Z,31.68
2023-06-11T10:44:33.414Z,31.99
2023-06-11T10:49:36.081Z,31.27
2023-06-11T10:54:38.472Z,31.49
2023-06-11T10:59:40.168Z,32.15
2023-06-11T11:04:52.828Z,31.10
2023-06-11T11:09:57.230Z,31.50
2023-06-11T11:15:06.406Z,31.63
2023-06-11T11:20:09.642Z,31.78
2023-06-11T11:25:12.164Z,32.06
2023-06-11T11:30:14.962Z,32.17
2023-06-11T11:35:16.917Z,32.59
2023-06-11T11:40:20.691Z,32.33
2023-06-11T11:45:31.332Z,32.02
2023-06-11T11:50:34.801Z,32.79
2023-06-11T11:55:51.719Z,32.43
2023-06-11T12:01:00.719Z,31.90
2023-06-11T12:06:05.713Z,32.11
2023-06-11T12:11:08.461Z,32.37
2023-06-11T12:16:10.113Z,31.85
2023-06-11T12:21:12.777Z,32.10
2023-06-11T12:26:14.545Z,32.03
2023-06-11T12:31:17.582Z,31.41
2023-06-11T12:36:19.168Z,31.62
2023-06-11T12:41:21.469Z,32.84
2023-06-11T12:46:23.598Z,31.90
2023-06-11T12:51:25.318Z,31.70
2023-06-11T12:56:27.212Z,32.01
2023-06-11T13:01:29.939Z,31.65
2023-06-11T13:06:31.521Z,32.64
2023-06-11T13:11:33.290Z,32.08
2023-06-11T13:16:34.924Z,31.93
2023-06-11T13:21:37.248Z,31.93
2023-06-11T13:26:39.097Z,32.30
2023-06-11T13:31:40.766Z,31.62
2023-06-11T13:36:43.614Z,31.58
2023-06-11T13:41:46.562Z,31.66
2023-06-11T13:46:48.510Z,31.57
2023-06-11T13:51:52.468Z,31.61
2023-06-11T13:56:55.009Z,31.81
2023-06-11T14:02:02.350Z,31.64
2023-06-11T14:07:04.634Z,31.73
2023-06-11T14:12:07.828Z,31.27
2023-06-11T14:17:13.319Z,31.80
2023-06-11T14:22:15.484Z,31.37
2023-06-11T14:27:16.960Z,31.37
2023-06-11T14:32:21.685Z,31.13
2023-06-11T14:37:26.143Z,31.58
2023-06-11T14:42:27.701Z,31.20
2023-06-11T14:47:30.315Z,30.72
2023-06-11T14:52:31.874Z,30.72
2023-06-11T14:57:33.471Z,31.09
2023-06-11T15:02:36.994Z,30.81
2023-06-11T15:07:38.646Z,30.70
2023-06-11T15:12:40.239Z,30.48
2023-06-11T15:17:41.779Z,30.47
2023-06-11T15:22:43.766Z,30.67
2023-06-11T15:27:45.487Z,30.58
2023-06-11T15:32:47.185Z,30.46
2023-06-11T15:37:48.749Z,30.29
2023-06-11T15:42:50.546Z,30.42
2023-06-11T15:47:55.358Z,30.39
2023-06-11T15:52:56.962Z,30.19
2023-06-11T15:57:58.509Z,30.09
2023-06-11T16:03:00.402Z,30.10
2023-06-11T16:08:02.044Z,30.22
2023-06-11T16:13:04.806Z,30.22
2023-06-11T16:18:06.443Z,30.49
2023-06-11T16:23:08.095Z,30.39
2023-06-11T16:28:09.651Z,30.34
2023-06-11T16:33:22.928Z,30.55
2023-06-11T16:38:24.609Z,31.03
2023-06-11T16:43:27.588Z,30.76
2023-06-11T16:48:29.260Z,30.35
2023-06-11T16:53:39.029Z,30.93
2023-06-11T16:58:40.506Z,30.90
2023-06-11T17:03:46.445Z,31.07
2023-06-11T17:08:49.673Z,30.86
2023-06-11T17:14:10.230Z,30.91
2023-06-11T17:19:12.125Z,30.87
2023-06-11T17:24:14.232Z,30.75
2023-06-11T17:29:16.140Z,30.70
2023-06-11T17:34:17.761Z,31.03
2023-06-11T17:39:19.217Z,30.70
2023-06-11T17:44:28.288Z,30.70
2023-06-11T17:49:29.766Z,30.74
2023-06-11T17:54:35.969Z,30.23
2023-06-11T17:59:37.465Z,30.07
2023-06-11T18:04:38.945Z,30.28
2023-06-11T18:09:40.491Z,29.94
2023-06-11T18:14:41.950Z,29.63
2023-06-11T18:19:43.642Z,29.28
2023-06-11T18:24:45.233Z,29.04
2023-06-11T18:29:47.744Z,28.91
2023-06-11T18:34:52.239Z,28.75
2023-06-11T18:39:53.691Z,28.41
2023-06-11T18:44:55.507Z,28.19
2023-06-11T18:49:57.422Z,27.96
2023-06-11T18:55:01.851Z,27.94
2023-06-11T19:00:06.715Z,27.69
2023-06-11T19:05:13.975Z,27.55
2023-06-11T19:10:28.202Z,27.37
2023-06-11T19:15:38.622Z,27.28
2023-06-11T19:20:48.297Z,27.12
2023-06-11T19:25:53.189Z,26.95
2023-06-11T19:30:58.840Z,26.83
2023-06-11T19:41:23.363Z,26.54
2023-06-11T19:46:27.882Z,26.40
2023-06-11T19:51:31.735Z,26.31
2023-06-11T19:56:33.768Z,26.09
2023-06-11T20:01:48.701Z,26.01
2023-06-11T20:06:50.649Z,25.81
2023-06-11T20:11:57.524Z,25.71
2023-06-11T20:17:00.753Z,25.60
2023-06-11T20:22:06.070Z,25.49
2023-06-11T20:27:07.886Z,25.33
2023-06-11T20:32:13.051Z,25.32
2023-06-11T20:37:18.153Z,25.17
2023-06-11T20:42:19.902Z,25.04
2023-06-11T20:47:26.420Z,24.97
2023-06-11T20:52:37.722Z,24.87
2023-06-11T20:57:39.524Z,24.77
2023-06-11T21:02:44.152Z,24.57
2023-06-11T21:07:47.336Z,24.47
2023-06-11T21:12:50.648Z,24.31
2023-06-11T21:17:55.395Z,24.18
2023-06-11T21:22:59.191Z,24.12
2023-06-11T21:28:05.513Z,24.10
2023-06-11T21:33:07.171Z,24.00
2023-06-11T21:38:10.391Z,23.98
2023-06-11T21:43:11.968Z,23.98
2023-06-11T21:48:24.657Z,23.87
2023-06-11T21:53:28.119Z,23.74
2023-06-11T21:58:29.759Z,23.63
2023-06-11T22:03:31.504Z,23.54
2023-06-11T22:08:33.309Z,23.47
2023-06-11T22:13:42.153Z,23.49
2023-06-11T22:18:45.490Z,23.48
2023-06-11T22:23:51.304Z,23.39
2023-06-11T22:28:53.294Z,23.36
2023-06-11T22:33:57.987Z,23.27
2023-06-11T22:39:12.420Z,23.12
2023-06-11T22:44:17.767Z,23.01
2023-06-11T22:49:19.363Z,23.05
2023-06-11T22:54:21.821Z,22.92
2023-06-11T22:59:23.327Z,22.84
2023-06-11T23:04:27.543Z,22.75
2023-06-11T23:09:29.654Z,22.64
2023-06-11T23:14:31.187Z,22.58
2023-06-11T23:19:33.466Z,22.49
2023-06-11T23:24:35.772Z,22.45
2023-06-11T23:29:37.361Z,22.34
2023-06-11T23:34:38.817Z,22.25
2023-06-11T23:39:40.260Z,22.22
2023-06-11T23:44:41.806Z,22.04
2023-06-11T23:49:43.405Z,22.06
2023-06-11T23:54:45.069Z,22.01
2023-06-11T23:59:48.808Z,21.95
